createdAt,value
2023-01-08T00:03:14.813Z,2.50
2023-01-08T00:08:17.461Z,2.50
2023-01-08T00:13:20.158Z,2.50
2023-01-08T00:18:22.815Z,2.50
2023-01-08T00:23:25.591Z,2.50
2023-01-08T00:28:28.484Z,2.60
2023-01-08T00:33:31.745Z,2.60
2023-01-08T00:38:34.581Z,2.50
2023-01-08T00:43:37.155Z,2.60
2023-01-08T00:48:39.712Z,2.50
2023-01-08T00:53:42.391Z,2.60
2023-01-08T00:58:44.871Z,2.60
2023-01-08T01:03:47.399Z,2.40
2023-01-08T01:08:50.054Z,2.50
2023-01-08T01:13:53.090Z,2.50
2023-01-08T01:18:57.657Z,2.50
2023-01-08T01:24:05.305Z,2.50
2023-01-08T01:29:07.889Z,2.40
2023-01-08T01:34:11.130Z,2.40
2023-01-08T01:39:13.686Z,2.30
2023-01-08T01:44:46.745Z,2.00
2023-01-08T01:50:04.953Z,1.80
2023-01-08T01:55:09.770Z,1.80
2023-01-08T02:00:12.789Z,2.20
2023-01-08T02:05:15.367Z,2.50
2023-01-08T02:10:24.286Z,2.60
2023-01-08T02:16:08.984Z,2.80
2023-01-08T02:21:17.368Z,3.00
2023-01-08T02:26:30.139Z,2.90
2023-01-08T02:31:33.857Z,2.90
2023-01-08T02:36:40.336Z,3.00
2023-01-08T02:41:54.788Z,3.00
2023-01-08T02:47:00.727Z,3.00
2023-01-08T02:52:05.667Z,3.00
2023-01-08T02:57:17.236Z,3.00
2023-01-08T03:02:19.912Z,3.10
2023-01-08T03:07:22.637Z,3.20
2023-01-08T03:12:38.553Z,3.20
2023-01-08T03:17:46.848Z,3.30
2023-01-08T03:22:54.355Z,3.20
2023-01-08T03:28:02.736Z,3.30
2023-01-08T03:33:09.231Z,3.20
2023-01-08T03:38:19.497Z,3.30
2023-01-08T03:43:22.105Z,3.30
2023-01-08T03:48:26.589Z,3.30
2023-01-08T03:53:29.217Z,3.30
2023-01-08T03:58:31.724Z,3.30
2023-01-08T04:03:34.253Z,3.20
2023-01-08T04:08:36.947Z,3.20
2023-01-08T04:13:39.558Z,3.10
2023-01-08T04:18:42.148Z,3.80
2023-01-08T04:23:44.698Z,3.10
2023-01-08T04:28:47.183Z,3.00
2023-01-08T04:33:49.945Z,2.80
2023-01-08T04:38:52.597Z,2.70
2023-01-08T04:43:55.172Z,2.70
2023-01-08T04:48:57.661Z,2.60
2023-01-08T04:54:00.118Z,2.50
2023-01-08T04:59:03.030Z,2.40
2023-01-08T05:04:05.782Z,2.40
2023-01-08T05:09:08.438Z,2.50
2023-01-08T05:14:11.020Z,2.40
2023-01-08T05:19:14.097Z,2.40
2023-01-08T05:24:16.758Z,2.40
2023-01-08T05:29:19.492Z,2.40
2023-01-08T05:34:22.155Z,2.40
2023-01-08T05:39:24.612Z,2.40
2023-01-08T05:44:27.079Z,2.40
2023-01-08T05:49:29.702Z,2.40
2023-01-08T05:54:32.237Z,2.40
2023-01-08T05:59:34.736Z,2.40
2023-01-08T06:04:37.386Z,2.50
2023-01-08T06:09:40.001Z,2.60
2023-01-08T06:14:42.448Z,2.60
2023-01-08T06:19:46.659Z,2.60
2023-01-08T06:24:49.286Z,2.60
2023-01-08T06:29:51.906Z,2.60
2023-01-08T06:34:54.693Z,2.60
2023-01-08T06:39:57.328Z,2.60
2023-01-08T06:45:00.068Z,2.60
2023-01-08T06:50:03.120Z,2.60
2023-01-08T06:55:06.452Z,2.80
2023-01-08T07:00:09.624Z,2.70
2023-01-08T07:05:12.267Z,2.80
2023-01-08T07:10:14.889Z,2.80
2023-01-08T07:15:17.574Z,2.90
2023-01-08T07:20:20.078Z,3.00
2023-01-08T07:25:24.115Z,3.10
2023-01-08T07:30:30.144Z,3.20
2023-01-08T07:35:37.006Z,3.30
2023-01-08T07:40:39.704Z,3.30
2023-01-08T07:45:42.792Z,3.40
2023-01-08T07:50:45.612Z,3.60
2023-01-08T07:55:48.221Z,3.50
2023-01-08T08:00:50.646Z,3.60
2023-01-08T08:05:53.474Z,3.60
2023-01-08T08:10:56.144Z,3.70
2023-01-08T08:16:05.425Z,3.80
2023-01-08T08:21:08.024Z,4.00
2023-01-08T08:26:10.999Z,4.20
2023-01-08T08:31:13.746Z,4.40
2023-01-08T08:36:16.477Z,4.50
2023-01-08T08:41:18.920Z,4.60
2023-01-08T08:46:21.561Z,4.70
2023-01-08T08:51:24.225Z,4.70
2023-01-08T08:56:29.851Z,4.70
2023-01-08T09:01:32.467Z,4.80
2023-01-08T09:06:35.163Z,4.90
2023-01-08T09:11:37.705Z,5.00
2023-01-08T09:16:40.382Z,5.50
2023-01-08T09:21:43.022Z,5.50
2023-01-08T09:26:45.655Z,5.70
2023-01-08T09:31:48.287Z,5.60
2023-01-08T09:36:50.950Z,5.40
2023-01-08T09:41:55.330Z,5.40
2023-01-08T09:46:58.647Z,5.30
2023-01-08T09:52:01.305Z,5.40
2023-01-08T09:57:04.201Z,5.70
2023-01-08T10:02:23.019Z,5.80
2023-01-08T10:07:27.831Z,5.70
2023-01-08T10:12:32.821Z,5.50
2023-01-08T10:17:39.583Z,5.50
2023-01-08T10:22:42.148Z,4.10
2023-01-08T10:28:04.233Z,5.20
2023-01-08T10:33:12.899Z,5.30
2023-01-08T10:38:50.494Z,5.30
2023-01-08T10:43:55.953Z,5.50
2023-01-08T10:49:02.116Z,5.60
2023-01-08T10:54:23.676Z,5.70
2023-01-08T10:59:26.688Z,5.80
2023-01-08T11:04:35.160Z,5.90
2023-01-08T11:09:47.908Z,6.00
2023-01-08T11:21:18.552Z,6.30
2023-01-08T11:26:22.479Z,6.50
2023-01-08T11:31:39.932Z,6.50
2023-01-08T11:36:58.063Z,6.70
2023-01-08T11:42:17.061Z,6.90
2023-01-08T11:47:44.776Z,7.10
2023-01-08T11:53:05.814Z,7.00
2023-01-08T11:58:42.136Z,6.90
2023-01-08T12:03:54.862Z,6.60
2023-01-08T12:09:22.623Z,6.20
2023-01-08T12:14:25.101Z,6.10
2023-01-08T12:19:57.132Z,6.10
2023-01-08T12:25:24.228Z,6.00
2023-01-08T12:30:38.494Z,6.10
2023-01-08T12:35:47.780Z,5.90
2023-01-08T12:40:57.750Z,5.90
2023-01-08T12:46:02.795Z,6.00
2023-01-08T12:51:18.153Z,5.90
2023-01-08T12:56:34.194Z,5.80
2023-01-08T13:02:02.768Z,5.80
2023-01-08T13:07:06.524Z,6.00
2023-01-08T13:12:14.327Z,6.10
2023-01-08T13:17:22.327Z,6.20
2023-01-08T13:22:26.068Z,6.20
2023-01-08T13:27:30.092Z,5.90
2023-01-08T13:32:42.395Z,5.70
2023-01-08T13:38:06.203Z,5.70
2023-01-08T13:43:29.581Z,5.70
2023-01-08T13:48:39.451Z,5.80
2023-01-08T13:53:42.535Z,5.70
2023-01-08T13:58:51.806Z,5.70
2023-01-08T14:03:54.557Z,5.60
2023-01-08T14:09:02.816Z,5.60
2023-01-08T14:14:05.721Z,5.50
2023-01-08T14:19:08.835Z,5.40
2023-01-08T14:24:16.369Z,5.30
2023-01-08T14:29:26.302Z,5.10
2023-01-08T14:34:32.503Z,4.90
2023-01-08T14:39:38.394Z,4.70
2023-01-08T14:44:44.499Z,4.50
2023-01-08T14:49:53.129Z,4.40
2023-01-08T14:55:00.142Z,4.40
2023-01-08T15:00:03.400Z,4.30
2023-01-08T15:05:16.725Z,4.20
2023-01-08T15:10:37.157Z,4.30
2023-01-08T15:15:56.776Z,4.30
2023-01-08T15:20:59.456Z,4.40
2023-01-08T15:26:02.130Z,4.50
2023-01-08T15:31:07.288Z,4.50
2023-01-08T15:36:10.051Z,4.50
2023-01-08T15:41:36.849Z,4.50
2023-01-08T15:46:39.333Z,4.50
2023-01-08T15:51:46.558Z,4.50
2023-01-08T15:56:49.754Z,4.40
2023-01-08T16:01:52.708Z,4.30
2023-01-08T16:06:55.299Z,4.30
2023-01-08T16:11:57.861Z,4.40
2023-01-08T16:17:01.531Z,4.40
2023-01-08T16:22:04.736Z,7.20
2023-01-08T16:27:08.708Z,4.30
2023-01-08T16:32:11.374Z,4.30
2023-01-08T16:37:14.631Z,4.30
2023-01-08T16:42:17.292Z,4.40
2023-01-08T16:47:19.821Z,4.40
2023-01-08T16:52:22.631Z,4.30
2023-01-08T16:57:25.183Z,4.20
2023-01-08T17:02:27.740Z,3.90
2023-01-08T17:07:30.527Z,2.40
2023-01-08T17:12:33.236Z,3.60
2023-01-08T17:17:35.807Z,3.40
2023-01-08T17:22:38.398Z,3.40
2023-01-08T17:27:42.192Z,3.40
2023-01-08T17:32:44.796Z,3.40
2023-01-08T17:37:47.609Z,3.30
2023-01-08T17:42:50.291Z,3.40
2023-01-08T17:47:52.832Z,3.30
2023-01-08T17:52:57.444Z,3.30
2023-01-08T17:58:00.225Z,3.30
2023-01-08T18:03:02.871Z,3.40
2023-01-08T18:08:05.902Z,3.40
2023-01-08T18:13:08.593Z,3.50
2023-01-08T18:18:11.159Z,3.60
2023-01-08T18:23:16.591Z,3.70
2023-01-08T18:28:19.232Z,3.70
2023-01-08T18:33:22.924Z,3.70
2023-01-08T18:38:25.518Z,3.70
2023-01-08T18:43:29.623Z,3.70
2023-01-08T18:48:33.509Z,3.70
2023-01-08T18:53:36.169Z,3.70
2023-01-08T18:58:38.666Z,3.50
2023-01-08T19:03:43.105Z,3.50
2023-01-08T19:08:46.274Z,3.40
2023-01-08T19:13:48.844Z,3.40
2023-01-08T19:18:51.477Z,3.50
2023-01-08T19:23:54.626Z,3.50
2023-01-08T19:28:57.358Z,3.50
2023-01-08T19:34:01.250Z,3.60
2023-01-08T19:39:05.339Z,3.70
2023-01-08T19:44:08.808Z,3.70
2023-01-08T19:49:11.349Z,3.70
2023-01-08T19:54:14.241Z,3.70
2023-01-08T19:59:17.065Z,3.70
2023-01-08T20:04:22.478Z,3.80
2023-01-08T20:09:26.232Z,3.90
2023-01-08T20:14:30.013Z,3.90
2023-01-08T20:19:32.804Z,3.90
2023-01-08T20:24:35.527Z,3.90
2023-01-08T20:29:39.142Z,3.90
2023-01-08T20:34:42.400Z,3.90
2023-01-08T20:39:46.172Z,3.90
2023-01-08T20:44:48.747Z,4.00
2023-01-08T20:49:51.259Z,4.00
2023-01-08T20:54:53.781Z,4.00
2023-01-08T20:59:56.500Z,4.00
2023-01-08T21:04:58.967Z,4.00
2023-01-08T21:10:02.129Z,4.00
2023-01-08T21:15:05.197Z,4.00
2023-01-08T21:20:09.206Z,4.00
2023-01-08T21:25:12.374Z,4.10
2023-01-08T21:30:15.213Z,4.10
2023-01-08T21:35:17.696Z,4.00
2023-01-08T21:40:21.233Z,4.00
2023-01-08T21:45:27.568Z,4.00
2023-01-08T21:50:30.291Z,4.00
2023-01-08T21:55:33.742Z,4.10
2023-01-08T22:00:38.061Z,4.10
2023-01-08T22:05:40.592Z,4.10
2023-01-08T22:10:43.243Z,4.10
2023-01-08T22:15:45.970Z,4.00
2023-01-08T22:20:59.527Z,4.10
2023-01-08T22:26:11.558Z,4.10
2023-01-08T22:31:16.447Z,4.10
2023-01-08T22:36:19.052Z,4.00
2023-01-08T22:41:23.886Z,4.00
2023-01-08T22:46:28.213Z,3.90
2023-01-08T22:51:31.888Z,3.60
2023-01-08T22:56:34.399Z,3.60
2023-01-08T23:01:36.989Z,3.40
2023-01-08T23:06:39.579Z,3.20
2023-01-08T23:11:42.478Z,2.90
2023-01-08T23:16:44.989Z,2.60
2023-01-08T23:21:47.619Z,2.60
2023-01-08T23:26:50.240Z,2.40
2023-01-08T23:31:52.901Z,2.20
2023-01-08T23:36:55.685Z,2.10
2023-01-08T23:41:58.128Z,2.10
2023-01-08T23:47:00.637Z,2.00
2023-01-08T23:52:03.194Z,2.00
2023-01-08T23:57:06.651Z,2.20
